TDPD/DOM METAR and TAF weather

Enter ICAO airport designator
Station Type Date Time Source
TDPD METAR 2020/03/31 00:00 UTC NOAA

TDPD 310000Z 09005KT 9999 SCT020 25/20 Q1015


Station Type Date Time Source
TDPD Decoded METAR 2020/03/31 00:00 UTC NOAA

Melville Hall Airport, Dominica (TDPD) 15-32N 061-18W 14M
Mar 30, 2020 - 08:00 PM EDT / 2020.03.31 0000 UTC
Wind: from the E (090 degrees) at 6 MPH (5 KT):0
Visibility: greater than 7 mile(s):0
Sky conditions: partly cloudy
Temperature: 77 F (25 C)
Dew Point: 68 F (20 C)
Relative Humidity: 73%
Pressure (altimeter): 29.97 in. Hg (1015 hPa)
ob: TDPD 310000Z 09005KT 9999 SCT020 25/20 Q1015
cycle: 0

Station Type Date Time Source
TDPD TAF 2020/03/30 18:55 UTC NOAA

TAF TDPD 301700Z 3018/3118 10016KT 9999 SCT018
TEMPO 3107/3110 5000 SHRA BKN014

Example: see airport list